Mount Clare, Nebraska
Current Conditions -  °F | °C
As of 6:53 PM on Saturday 22 Nov 2014 (Local Time) from KHSI Reporting Station
Clear Clear  
Wind Chill: 51°   Ceiling: Unl
Heat Index: 51°   Visibility: 10mi
Dew Point: 38°   Wind: 8mph
Humidity: 61%   Direction: 190°S
Pressure: 29.56"   Gusts: NA
Location:  40.2635°N, 98.2176°W
Report Text: KHSI 230053Z AUTO 19007KT 10SM CLR 11/03 A2956 RMK AO2 SLP015 T01060033
Loading
Personal Weather Stations






























Interactive Weather Map New forecast layout! Learn more

10-Day Weather Forecast

Advertisements
Track Severe Weather on mobile